createdAt,value
2022-08-30T00:00:26.347Z,2.45
2022-08-30T00:04:28.103Z,2.50
2022-08-30T00:08:29.877Z,2.47
2022-08-30T00:12:32.640Z,2.80
2022-08-30T00:16:34.429Z,2.62
2022-08-30T00:20:38.237Z,2.75
2022-08-30T00:24:40.106Z,2.90
2022-08-30T00:28:42.006Z,3.15
2022-08-30T00:32:43.833Z,2.55
2022-08-30T00:36:45.789Z,3.00
2022-08-30T00:40:47.675Z,2.92
2022-08-30T00:44:50.190Z,3.12
2022-08-30T00:48:52.731Z,3.15
2022-08-30T00:52:58.138Z,2.90
2022-08-30T00:57:00.322Z,3.10
2022-08-30T01:01:02.726Z,3.30
2022-08-30T01:05:06.686Z,2.75
2022-08-30T01:09:09.367Z,2.85
2022-08-30T01:13:13.806Z,3.17
2022-08-30T01:17:16.496Z,3.17
2022-08-30T01:26:04.570Z,3.58
2022-08-30T01:30:07.739Z,3.70
2022-08-30T01:34:09.979Z,3.00
2022-08-30T01:38:12.944Z,3.40
2022-08-30T01:42:17.310Z,3.45
2022-08-30T01:46:23.416Z,3.10
2022-08-30T01:50:25.267Z,3.65
2022-08-30T01:54:27.288Z,3.33
2022-08-30T01:58:36.245Z,3.47
2022-08-30T02:02:38.000Z,3.40
2022-08-30T02:06:39.785Z,3.33
2022-08-30T02:10:41.917Z,3.60
2022-08-30T02:14:43.833Z,3.67
2022-08-30T02:18:45.848Z,3.28
2022-08-30T02:22:48.384Z,3.30
2022-08-30T02:26:53.119Z,3.40
2022-08-30T02:30:55.132Z,3.87
2022-08-30T02:34:56.865Z,3.30
2022-08-30T02:38:58.735Z,3.37
2022-08-30T02:43:00.566Z,3.20
2022-08-30T02:47:02.337Z,3.10
2022-08-30T02:51:11.637Z,3.60
2022-08-30T02:55:13.588Z,3.60
2022-08-30T02:59:16.352Z,3.37
2022-08-30T03:03:18.355Z,3.50
2022-08-30T03:07:20.498Z,3.30
2022-08-30T03:11:22.301Z,3.70
2022-08-30T03:15:26.315Z,3.58
2022-08-30T03:19:28.443Z,3.53
2022-08-30T03:23:31.418Z,3.55
2022-08-30T03:27:33.455Z,3.70
2022-08-30T03:31:52.626Z,3.80
2022-08-30T03:35:55.682Z,3.47
2022-08-30T03:39:57.629Z,3.90
2022-08-30T03:44:00.759Z,3.67
2022-08-30T03:48:03.527Z,3.78
2022-08-30T03:52:05.599Z,3.87
2022-08-30T03:56:07.317Z,4.37
2022-08-30T04:00:10.940Z,3.97
2022-08-30T04:04:14.565Z,4.00
2022-08-30T04:08:23.293Z,3.70
2022-08-30T04:12:25.088Z,3.95
2022-08-30T04:16:27.150Z,4.10
2022-08-30T04:20:28.970Z,4.18
2022-08-30T04:24:30.676Z,3.72
2022-08-30T04:28:33.953Z,3.80
2022-08-30T04:32:36.124Z,3.92
2022-08-30T04:36:38.044Z,3.75
2022-08-30T04:40:43.210Z,4.50
2022-08-30T04:44:45.092Z,4.30
2022-08-30T04:48:47.254Z,4.05
2022-08-30T04:52:48.984Z,4.25
2022-08-30T04:56:50.715Z,4.60
2022-08-30T05:00:52.705Z,4.60
2022-08-30T05:05:14.267Z,4.43
2022-08-30T05:09:16.395Z,5.53
2022-08-30T05:13:20.656Z,4.72
2022-08-30T05:17:26.160Z,4.75
2022-08-30T05:21:29.139Z,4.22
2022-08-30T05:25:41.270Z,6.65
2022-08-30T05:29:43.025Z,4.50
2022-08-30T05:33:45.912Z,4.20
2022-08-30T05:37:47.696Z,4.45
2022-08-30T05:41:49.408Z,4.80
2022-08-30T05:46:03.078Z,4.18
2022-08-30T05:50:07.048Z,6.12
2022-08-30T05:54:08.936Z,4.50
2022-08-30T05:58:10.687Z,4.20
2022-08-30T06:02:12.574Z,4.37
2022-08-30T06:06:14.480Z,4.53
2022-08-30T06:10:16.877Z,4.82
2022-08-30T06:14:19.335Z,4.40
2022-08-30T06:18:27.909Z,4.22
2022-08-30T06:22:30.587Z,4.80
2022-08-30T06:26:36.827Z,4.40
2022-08-30T06:30:40.597Z,4.30
2022-08-30T06:34:42.302Z,5.25
2022-08-30T06:38:45.208Z,5.00
2022-08-30T06:42:47.616Z,4.85
2022-08-30T06:46:49.410Z,5.37
2022-08-30T06:50:54.895Z,4.55
2022-08-30T06:54:58.861Z,4.47
2022-08-30T06:59:00.792Z,4.85
2022-08-30T07:03:02.737Z,5.30
2022-08-30T07:07:04.940Z,4.43
2022-08-30T07:11:08.344Z,4.05
2022-08-30T07:15:10.613Z,4.40
2022-08-30T07:19:20.420Z,4.15
2022-08-30T07:23:23.235Z,5.05
2022-08-30T07:27:25.015Z,4.70
2022-08-30T07:31:26.790Z,4.60
2022-08-30T07:35:28.732Z,4.18
2022-08-30T07:39:31.841Z,4.25
2022-08-30T07:43:35.836Z,4.60
2022-08-30T07:47:37.844Z,3.95
2022-08-30T07:51:40.619Z,4.22
2022-08-30T07:55:42.352Z,4.10
2022-08-30T07:59:44.080Z,3.40
2022-08-30T08:03:47.848Z,3.50
2022-08-30T08:07:49.648Z,3.87
2022-08-30T08:11:51.389Z,3.60
2022-08-30T08:15:53.464Z,3.40
2022-08-30T08:19:55.263Z,3.53
2022-08-30T08:23:57.098Z,3.53
2022-08-30T08:27:59.021Z,3.30
2022-08-30T08:32:01.006Z,3.53
2022-08-30T08:36:05.196Z,3.28
2022-08-30T08:40:16.719Z,3.00
2022-08-30T08:44:50.560Z,3.45
2022-08-30T08:49:01.212Z,2.90
2022-08-30T08:53:50.697Z,3.22
2022-08-30T08:57:57.436Z,2.62
2022-08-30T09:02:02.939Z,2.35
2022-08-30T09:06:31.149Z,2.67
2022-08-30T09:10:49.153Z,2.70
2022-08-30T09:14:55.736Z,2.45
2022-08-30T09:18:57.660Z,2.67
2022-08-30T09:23:19.687Z,2.60
2022-08-30T09:27:26.186Z,2.10
2022-08-30T09:31:32.621Z,2.05
2022-08-30T09:35:46.461Z,2.80
2022-08-30T09:39:48.695Z,2.15
2022-08-30T09:44:15.204Z,2.35
2022-08-30T09:48:23.004Z,1.92
2022-08-30T09:53:02.645Z,2.28
2022-08-30T09:57:19.523Z,2.15
2022-08-30T10:01:53.439Z,2.78
2022-08-30T10:06:18.751Z,2.50
2022-08-30T10:10:46.483Z,2.03
2022-08-30T10:15:26.575Z,2.40
2022-08-30T10:20:10.964Z,2.30
2022-08-30T10:24:19.692Z,2.12
2022-08-30T10:28:36.442Z,2.50
2022-08-30T10:32:52.376Z,2.17
2022-08-30T10:37:06.986Z,2.30
2022-08-30T10:41:37.813Z,2.20
2022-08-30T10:45:44.716Z,2.10
2022-08-30T10:53:57.601Z,2.03
2022-08-30T10:58:01.552Z,2.50
2022-08-30T11:02:21.569Z,2.28
2022-08-30T11:06:41.899Z,2.35
2022-08-30T11:11:01.849Z,1.95
2022-08-30T11:15:21.497Z,1.90
2022-08-30T11:19:49.763Z,1.98
2022-08-30T11:28:35.160Z,1.90
2022-08-30T11:33:11.724Z,2.00
2022-08-30T11:37:35.947Z,2.17
2022-08-30T11:41:45.598Z,2.35
2022-08-30T11:45:52.472Z,2.30
2022-08-30T11:50:14.289Z,2.03
2022-08-30T11:54:21.699Z,1.87
2022-08-30T11:58:54.732Z,1.80
2022-08-30T12:03:03.586Z,2.20
2022-08-30T12:07:07.771Z,1.67
2022-08-30T12:11:13.106Z,2.12
2022-08-30T12:15:48.871Z,1.60
2022-08-30T12:19:51.712Z,1.70
2022-08-30T12:23:57.258Z,2.00
2022-08-30T12:28:33.322Z,1.75
2022-08-30T12:32:45.555Z,1.30
2022-08-30T12:37:20.845Z,2.10
2022-08-30T12:41:24.125Z,1.55
2022-08-30T12:45:31.721Z,1.62
2022-08-30T12:49:37.904Z,1.58
2022-08-30T12:53:42.572Z,1.67
2022-08-30T12:58:11.463Z,1.65
2022-08-30T13:02:20.348Z,1.83
2022-08-30T13:06:55.947Z,1.77
2022-08-30T13:11:08.424Z,3.78
2022-08-30T13:15:11.931Z,1.90
2022-08-30T13:19:33.501Z,1.80
2022-08-30T13:23:35.213Z,1.80
2022-08-30T13:27:38.931Z,1.45
2022-08-30T13:31:41.791Z,2.20
2022-08-30T13:35:45.700Z,1.48
2022-08-30T13:39:47.612Z,2.20
2022-08-30T13:48:13.442Z,1.60
2022-08-30T13:52:25.550Z,1.92
2022-08-30T13:56:32.108Z,1.62
2022-08-30T14:00:37.825Z,1.90
2022-08-30T14:04:39.915Z,1.90
2022-08-30T14:08:46.314Z,1.77
2022-08-30T14:12:57.345Z,1.90
2022-08-30T14:17:02.658Z,1.92
2022-08-30T14:21:04.537Z,1.80
2022-08-30T14:25:07.974Z,1.75
2022-08-30T14:29:19.281Z,2.37
2022-08-30T14:33:21.002Z,2.00
2022-08-30T14:37:23.410Z,2.10
2022-08-30T14:41:27.015Z,2.50
2022-08-30T14:45:28.868Z,2.12
2022-08-30T14:49:30.648Z,2.45
2022-08-30T14:53:32.397Z,2.37
2022-08-30T14:57:34.325Z,1.80
2022-08-30T15:01:38.903Z,1.80
2022-08-30T15:05:40.918Z,2.25
2022-08-30T15:09:43.653Z,2.28
2022-08-30T15:13:46.317Z,2.25
2022-08-30T15:17:48.627Z,2.40
2022-08-30T15:21:51.231Z,2.20
2022-08-30T15:25:54.245Z,2.00
2022-08-30T15:29:55.962Z,2.15
2022-08-30T15:33:58.743Z,1.83
2022-08-30T15:38:00.539Z,1.98
2022-08-30T15:42:02.264Z,1.73
2022-08-30T15:46:29.688Z,2.30
2022-08-30T15:50:31.964Z,1.98
2022-08-30T15:54:33.739Z,1.95
2022-08-30T15:58:35.470Z,1.87
2022-08-30T16:02:37.556Z,1.83
2022-08-30T16:06:41.773Z,1.85
2022-08-30T16:10:43.734Z,1.52
2022-08-30T16:14:47.963Z,1.40
2022-08-30T16:18:54.090Z,1.50
2022-08-30T16:22:57.095Z,1.70
2022-08-30T16:26:58.951Z,1.90
2022-08-30T16:31:01.929Z,2.00
2022-08-30T16:35:06.507Z,1.70
2022-08-30T16:39:09.605Z,1.60
2022-08-30T16:43:11.443Z,1.65
2022-08-30T16:47:13.573Z,1.70
2022-08-30T16:51:19.431Z,1.65
2022-08-30T16:55:21.418Z,1.77
2022-08-30T16:59:24.585Z,1.37
2022-08-30T17:03:26.600Z,1.60
2022-08-30T17:07:28.420Z,1.40
2022-08-30T17:11:31.367Z,1.58
2022-08-30T17:15:33.537Z,1.45
2022-08-30T17:19:41.141Z,1.40
2022-08-30T17:23:43.183Z,1.50
2022-08-30T17:27:46.660Z,1.55
2022-08-30T17:31:51.241Z,1.40
2022-08-30T17:35:54.691Z,1.75
2022-08-30T17:40:00.049Z,1.40
2022-08-30T17:44:02.296Z,1.50
2022-08-30T17:48:06.840Z,1.45
2022-08-30T17:52:09.518Z,1.50
2022-08-30T17:56:14.425Z,6.18
2022-08-30T18:00:16.610Z,1.35
2022-08-30T18:04:20.844Z,1.15
2022-08-30T18:08:22.595Z,1.50
2022-08-30T18:12:24.487Z,1.30
2022-08-30T18:16:28.732Z,1.50
2022-08-30T18:20:32.325Z,1.60
2022-08-30T18:24:34.643Z,1.20
2022-08-30T18:28:36.604Z,1.10
2022-08-30T18:32:38.386Z,1.10
2022-08-30T18:36:41.356Z,1.52
2022-08-30T18:40:43.865Z,1.37
2022-08-30T18:44:45.648Z,1.37
2022-08-30T18:48:48.675Z,1.10
2022-08-30T18:52:52.572Z,1.20
2022-08-30T18:56:58.097Z,1.33
2022-08-30T19:00:59.874Z,1.20
2022-08-30T19:05:01.759Z,1.10
2022-08-30T19:09:03.624Z,1.40
2022-08-30T19:13:11.030Z,1.20
2022-08-30T19:17:14.503Z,1.00
2022-08-30T19:21:16.291Z,1.50
2022-08-30T19:25:20.551Z,1.30
2022-08-30T19:29:22.287Z,1.30
2022-08-30T19:33:26.089Z,1.30
2022-08-30T19:37:28.346Z,1.40
2022-08-30T19:41:30.176Z,1.37
2022-08-30T19:45:31.901Z,1.50
2022-08-30T19:49:36.010Z,1.48
2022-08-30T19:53:38.095Z,1.42
2022-08-30T19:57:40.125Z,1.33
2022-08-30T20:01:41.971Z,1.75
2022-08-30T20:05:47.484Z,1.90
2022-08-30T20:09:51.547Z,1.50
2022-08-30T20:14:00.770Z,1.60
2022-08-30T20:18:06.142Z,1.60
2022-08-30T20:22:15.175Z,1.60
2022-08-30T20:26:17.114Z,1.50
2022-08-30T20:30:19.343Z,1.90
2022-08-30T20:34:27.103Z,1.50
2022-08-30T20:38:28.843Z,1.50
2022-08-30T20:42:31.220Z,1.80
2022-08-30T20:46:34.345Z,1.85
2022-08-30T20:50:38.351Z,1.60
2022-08-30T20:54:40.248Z,1.98
2022-08-30T20:58:42.614Z,1.60
2022-08-30T21:02:46.950Z,1.75
2022-08-30T21:06:50.299Z,1.67
2022-08-30T21:10:53.772Z,2.03
2022-08-30T21:14:55.518Z,1.77
2022-08-30T21:18:57.328Z,1.60
2022-08-30T21:22:59.175Z,1.73
2022-08-30T21:27:01.001Z,2.17
2022-08-30T21:31:11.780Z,1.58
2022-08-30T21:35:32.396Z,1.50
2022-08-30T21:39:34.506Z,1.67
2022-08-30T21:43:36.333Z,1.27
2022-08-30T21:47:38.541Z,1.70
2022-08-30T21:51:43.491Z,1.60
2022-08-30T21:55:45.611Z,2.03
2022-08-30T21:59:49.965Z,1.70
2022-08-30T22:03:54.074Z,1.58
2022-08-30T22:07:55.807Z,1.45
2022-08-30T22:11:57.564Z,1.20
2022-08-30T22:16:00.084Z,1.40
2022-08-30T22:20:01.845Z,1.77
2022-08-30T22:24:04.178Z,1.90
2022-08-30T22:28:05.885Z,1.52
2022-08-30T22:32:08.930Z,1.58
2022-08-30T22:36:15.683Z,1.42
2022-08-30T22:40:17.608Z,1.50
2022-08-30T22:44:19.409Z,1.55
2022-08-30T22:48:21.145Z,1.55
2022-08-30T22:52:25.213Z,1.85
2022-08-30T22:56:28.248Z,1.75
2022-08-30T23:00:30.241Z,1.67
2022-08-30T23:04:32.495Z,1.70
2022-08-30T23:08:34.406Z,1.98
2022-08-30T23:12:36.889Z,2.00
2022-08-30T23:16:38.856Z,1.83
2022-08-30T23:20:40.640Z,1.73
2022-08-30T23:25:01.092Z,1.65
2022-08-30T23:29:22.025Z,1.70
2022-08-30T23:33:42.419Z,1.60
2022-08-30T23:38:03.072Z,1.90
2022-08-30T23:42:23.495Z,1.50
2022-08-30T23:46:43.964Z,1.95
2022-08-30T23:51:04.527Z,1.95
2022-08-30T23:55:25.495Z,1.83
2022-08-30T23:59:46.196Z,1.87
